Time;durP1;ratioP1;P1;durP2;ratioP2;P2;SDS_P1;SDS_P2;PMS_P1;PMS_P2;Temp;Humidity;BMP_temperature;BMP_pressure;BME280_temperature;BME280_humidity;BME280_pressure;Samples;Min_cycle;Max_cycle;Signal;HPM_P1;HPM_P2
2022/09/11 00:01:59;;;;;;;;;;;;;;;20.63;78.72;101693.72;7283548;19;152783;-59
2022/09/11 00:04:27;;;;;;;;;;;;;;;20.70;78.00;101691.44;7289233;19;153161;-59
2022/09/11 00:06:53;;;;;;;;;;;;;;;20.72;78.42;101691.97;7284789;19;152251;-58
2022/09/11 00:09:24;;;;;;;;;;;;;;;20.72;78.64;101691.97;7280016;19;151843;-59
2022/09/11 00:11:51;;;;;;;;;;;;;;;20.73;78.49;101690.84;7284546;19;154154;-59
2022/09/11 00:14:18;;;;;;;;;;;;;;;20.75;78.16;101690.56;7283588;19;152321;-59
2022/09/11 00:16:46;;;;;;;;;;;;;;;20.76;78.02;101692.22;7284779;19;153359;-58
2022/09/11 00:19:16;;;;;;;;;;;;;;;20.75;78.25;101685.78;7282662;19;155222;-58
2022/09/11 00:21:44;;;;;;;;;;;;;;;20.77;78.48;101688.28;7284234;19;152356;-58
2022/09/11 00:24:11;;;;;;;;;;;;;;;20.76;78.55;101689.41;7282709;19;152761;-58
2022/09/11 00:26:41;;;;;;;;;;;;;;;20.76;78.57;101693.06;7289550;19;153992;-58
2022/09/11 00:29:10;;;;;;;;;;;;;;;20.78;78.52;101688.00;7280444;19;153311;-58
2022/09/11 00:31:38;;;;;;;;;;;;;;;20.78;78.83;101689.97;7281567;19;153800;-58
2022/09/11 00:34:05;;;;;;;;;;;;;;;20.78;78.70;101689.97;7281029;19;152153;-58
2022/09/11 00:36:35;;;;;;;;;;;;;;;20.76;78.72;101681.81;7283535;19;153626;-59
2022/09/11 00:39:02;;;;;;;;;;;;;;;20.76;79.25;101687.44;7281344;19;153298;-58
2022/09/11 00:41:30;;;;;;;;;;;;;;;20.75;79.40;101682.97;7283624;19;152409;-59
2022/09/11 00:44:01;;;;;;;;;;;;;;;20.77;79.48;101683.50;7278098;19;153305;-59
2022/09/11 00:46:31;;;;;;;;;;;;;;;20.78;79.30;101679.56;7281039;19;153892;-59
2022/09/11 00:48:58;;;;;;;;;;;;;;;20.80;79.34;101680.09;7290558;19;152193;-59
2022/09/11 00:51:28;;;;;;;;;;;;;;;20.79;80.14;101686.03;7284866;19;153987;-59
2022/09/11 00:53:57;;;;;;;;;;;;;;;20.78;79.93;101687.16;7280303;19;153512;-59
2022/09/11 00:56:27;;;;;;;;;;;;;;;20.79;80.09;101686.88;7285817;19;152876;-59
2022/09/11 00:58:55;;;;;;;;;;;;;;;20.80;80.10;101685.72;7276362;19;152241;-58
2022/09/11 01:01:22;;;;;;;;;;;;;;;20.79;80.76;101686.88;7283811;19;151826;-58
2022/09/11 01:03:51;;;;;;;;;;;;;;;20.80;80.83;101688.53;7279166;19;152152;-59
2022/09/11 01:06:19;;;;;;;;;;;;;;;20.79;80.90;101688.84;7280312;19;153322;-59
2022/09/11 01:08:47;;;;;;;;;;;;;;;20.80;81.33;101684.91;7279954;19;151953;-60
2022/09/11 01:11:17;;;;;;;;;;;;;;;20.81;81.10;101683.75;7291232;19;152183;-60
2022/09/11 01:13:44;;;;;;;;;;;;;;;20.79;81.61;101691.66;7280522;19;152096;-60
2022/09/11 01:16:14;;;;;;;;;;;;;;;20.79;81.25;101684.06;7283521;19;153703;-60
2022/09/11 01:18:48;;;;;;;;;;;;;;;20.81;81.29;101684.59;7281048;19;153367;-59
2022/09/11 01:21:19;;;;;;;;;;;;;;;20.81;81.56;101683.75;7281994;19;152096;-59
2022/09/11 01:23:49;;;;;;;;;;;;;;;20.80;81.71;101685.72;7279943;19;152710;-60
2022/09/11 01:26:21;;;;;;;;;;;;;;;20.79;82.04;101680.41;7280882;19;154242;-60
2022/09/11 01:28:51;;;;;;;;;;;;;;;20.83;81.97;101675.88;7279000;19;152537;-60
2022/09/11 01:31:21;;;;;;;;;;;;;;;20.80;82.13;101679.28;7283464;19;152719;-59
2022/09/11 01:33:54;;;;;;;;;;;;;;;20.84;81.90;101678.41;7287312;19;153620;-59
2022/09/11 01:36:28;;;;;;;;;;;;;;;20.80;82.91;101677.28;7281937;19;152730;-59
2022/09/11 01:38:58;;;;;;;;;;;;;;;20.81;82.49;101672.50;7278816;19;154162;-59
2022/09/11 01:41:28;;;;;;;;;;;;;;;20.82;82.96;101680.66;7283702;19;152414;-59
2022/09/11 01:44:02;;;;;;;;;;;;;;;20.83;83.01;101675.88;7275817;19;153774;-59
2022/09/11 01:46:33;;;;;;;;;;;;;;;20.80;83.33;101680.09;7280190;19;152210;-59
2022/09/11 01:49:06;;;;;;;;;;;;;;;20.85;83.44;101673.59;7280676;19;152236;-60
2022/09/11 01:51:35;;;;;;;;;;;;;;;20.83;83.41;101675.88;7283688;19;153348;-59
2022/09/11 01:54:06;;;;;;;;;;;;;;;20.85;83.27;101674.44;7279498;19;153985;-60
2022/09/11 01:56:35;;;;;;;;;;;;;;;20.88;83.52;101677.81;7290967;19;151904;-59
2022/09/11 01:59:05;;;;;;;;;;;;;;;20.90;83.56;101675.53;7284275;19;153353;-59
2022/09/11 02:01:34;;;;;;;;;;;;;;;20.89;83.25;101680.34;7287712;19;152435;-59
2022/09/11 02:04:06;;;;;;;;;;;;;;;20.90;84.01;101675.53;7284418;19;153379;-60
2022/09/11 02:06:35;;;;;;;;;;;;;;;20.92;83.74;101681.72;7288162;19;152605;-60
2022/09/11 02:09:07;;;;;;;;;;;;;;;20.91;83.48;101678.06;7288250;19;151956;-60
2022/09/11 02:11:39;;;;;;;;;;;;;;;20.91;83.96;101677.22;7288724;19;153716;-60
2022/09/11 02:14:12;;;;;;;;;;;;;;;20.94;83.70;101680.28;7285683;19;154191;-60
2022/09/11 02:16:44;;;;;;;;;;;;;;;20.96;83.63;101680.00;7291542;19;152263;-60
2022/09/11 02:19:13;;;;;;;;;;;;;;;20.94;83.61;101677.47;7285664;19;153845;-60
2022/09/11 02:21:42;;;;;;;;;;;;;;;20.95;83.90;101678.31;7289263;19;153911;-60
2022/09/11 02:24:10;;;;;;;;;;;;;;;20.95;83.47;101681.97;7286396;19;152194;-60
2022/09/11 02:26:41;;;;;;;;;;;;;;;20.98;83.49;101680.53;7287463;19;152056;-60
2022/09/11 02:29:10;;;;;;;;;;;;;;;20.98;82.98;101678.56;7286186;19;152028;-60
2022/09/11 02:31:37;;;;;;;;;;;;;;;20.98;83.66;101684.19;7287052;19;153896;-60
2022/09/11 02:34:06;;;;;;;;;;;;;;;20.97;83.59;101676.06;7286860;19;154025;-59
2022/09/11 02:36:43;;;;;;;;;;;;;;;20.99;83.17;101682.19;7288398;19;151693;-60
2022/09/11 02:39:14;;;;;;;;;;;;;;;20.99;83.70;101690.63;7292802;19;153539;-59
2022/09/11 02:41:45;;;;;;;;;;;;;;;20.99;83.81;101691.47;7289112;19;152036;-60
2022/09/11 02:44:13;;;;;;;;;;;;;;;20.98;84.08;101683.34;7282505;19;153458;-60
2022/09/11 02:46:42;;;;;;;;;;;;;;;20.99;83.76;101680.22;7286825;19;153849;-60
2022/09/11 02:49:13;;;;;;;;;;;;;;;21.01;83.72;101677.13;7284418;19;152156;-60
2022/09/11 02:51:42;;;;;;;;;;;;;;;21.01;83.47;101677.97;7288409;19;153279;-60
2022/09/11 02:54:14;;;;;;;;;;;;;;;20.98;84.24;101674.94;7284919;19;153447;-59
2022/09/11 02:56:45;;;;;;;;;;;;;;;21.02;84.10;101674.03;7288907;19;152018;-60
2022/09/11 02:59:17;;;;;;;;;;;;;;;21.01;83.83;101677.97;7284442;19;152999;-59
2022/09/11 03:01:48;;;;;;;;;;;;;;;21.02;83.52;101676.00;7294553;19;154460;-59
2022/09/11 03:04:17;;;;;;;;;;;;;;;21.01;83.67;101677.13;7284701;19;153276;-60
2022/09/11 03:06:47;;;;;;;;;;;;;;;21.01;84.08;101677.13;7287598;19;154233;-59
2022/09/11 03:09:15;;;;;;;;;;;;;;;21.03;83.64;101681.31;7284306;19;151974;-60
2022/09/11 03:11:43;;;;;;;;;;;;;;;21.03;84.15;101680.50;7287827;19;153290;-60
2022/09/11 03:14:11;;;;;;;;;;;;;;;21.03;83.89;101683.31;7280126;19;154245;-59
2022/09/11 03:16:39;;;;;;;;;;;;;;;21.04;83.92;101679.34;7284334;19;152083;-60
2022/09/11 03:19:07;;;;;;;;;;;;;;;21.03;83.55;101677.69;7285591;19;152784;-60
2022/09/11 03:21:36;;;;;;;;;;;;;;;21.04;83.46;101682.16;7286868;19;153328;-60
2022/09/11 03:24:04;;;;;;;;;;;;;;;21.03;84.20;101686.13;7292514;19;153366;-60
2022/09/11 03:26:32;;;;;;;;;;;;;;;21.03;84.26;101691.75;7285553;19;153989;-60
2022/09/11 03:28:59;;;;;;;;;;;;;;;21.03;83.95;101683.31;7283706;19;152014;-60
2022/09/11 03:31:27;;;;;;;;;;;;;;;21.04;84.04;101679.34;7286900;19;152669;-60
2022/09/11 03:33:54;;;;;;;;;;;;;;;21.03;84.26;101681.31;7264166;19;156597;-60
2022/09/11 03:36:21;;;;;;;;;;;;;;;21.05;84.55;101686.66;7282210;19;152422;-60
2022/09/11 03:38:49;;;;;;;;;;;;;;;21.05;84.16;101681.88;7285441;19;152494;-60
2022/09/11 03:41:16;;;;;;;;;;;;;;;21.07;84.27;101676.81;7283541;19;152790;-60
2022/09/11 03:43:43;;;;;;;;;;;;;;;21.06;84.17;101674.28;7279852;19;152667;-60
2022/09/11 03:46:10;;;;;;;;;;;;;;;21.08;83.86;101674.81;7291994;19;154601;-60
2022/09/11 03:48:38;;;;;;;;;;;;;;;21.08;83.84;101672.84;7283772;19;151894;-60
2022/09/11 03:51:05;;;;;;;;;;;;;;;21.10;83.99;101669.75;7286888;19;152191;-59
2022/09/11 03:53:32;;;;;;;;;;;;;;;21.10;83.99;101676.22;7283763;19;153964;-60
2022/09/11 03:55:59;;;;;;;;;;;;;;;21.10;83.76;101669.75;7286736;19;152064;-60
2022/09/11 03:58:26;;;;;;;;;;;;;;;21.09;84.01;101668.06;7282122;19;152542;-60
2022/09/11 04:00:54;;;;;;;;;;;;;;;21.10;84.31;101664.13;7281926;19;154120;-60
2022/09/11 04:03:22;;;;;;;;;;;;;;;21.12;84.15;101678.75;7284373;19;152306;-60
2022/09/11 04:05:52;;;;;;;;;;;;;;;21.12;83.89;101671.13;7286561;19;153436;-60
2022/09/11 04:08:19;;;;;;;;;;;;;;;21.12;84.30;101676.75;7291986;19;151864;-60
2022/09/11 04:10:46;;;;;;;;;;;;;;;21.14;83.96;101671.72;7286723;19;152591;-60
2022/09/11 04:13:13;;;;;;;;;;;;;;;21.14;83.96;101673.69;7281671;19;153116;-60
2022/09/11 04:15:40;;;;;;;;;;;;;;;21.13;84.05;101674.81;7285247;19;152045;-60
2022/09/11 04:18:07;;;;;;;;;;;;;;;21.12;84.04;101667.50;7284683;19;153729;-60
2022/09/11 04:20:37;;;;;;;;;;;;;;;21.13;84.03;101670.03;7283401;19;153821;-60
2022/09/11 04:23:04;;;;;;;;;;;;;;;21.14;84.34;101668.06;7282725;19;152193;-60
2022/09/11 04:25:31;;;;;;;;;;;;;;;21.12;84.08;101665.50;7280527;19;153218;-59
2022/09/11 04:27:58;;;;;;;;;;;;;;;21.14;84.53;101666.09;7288884;19;153283;-60
2022/09/11 04:30:25;;;;;;;;;;;;;;;21.13;84.54;101672.84;7284218;19;152237;-60
2022/09/11 04:32:52;;;;;;;;;;;;;;;21.13;84.67;101678.47;7281792;19;153469;-60
2022/09/11 04:35:19;;;;;;;;;;;;;;;21.13;84.59;101684.06;7278441;19;152559;-60
2022/09/11 04:37:46;;;;;;;;;;;;;;;21.14;84.77;101676.50;7285057;19;152232;-60
2022/09/11 04:40:13;;;;;;;;;;;;;;;21.14;84.74;101671.72;7284496;19;152034;-60
2022/09/11 04:42:40;;;;;;;;;;;;;;;21.13;84.85;101680.44;7282507;19;152532;-60
2022/09/11 04:45:07;;;;;;;;;;;;;;;21.13;84.77;101669.19;7282415;19;153339;-60
2022/09/11 04:47:34;;;;;;;;;;;;;;;21.13;84.69;101677.63;7282346;19;152674;-60
2022/09/11 04:50:01;;;;;;;;;;;;;;;21.12;84.55;101671.13;7291902;19;152526;-60
2022/09/11 04:52:28;;;;;;;;;;;;;;;21.12;84.58;101671.13;7283250;19;154604;-60
2022/09/11 04:54:55;;;;;;;;;;;;;;;21.15;84.33;101666.94;7284490;19;151954;-59
2022/09/11 04:57:22;;;;;;;;;;;;;;;21.16;84.63;101668.63;7281853;19;152973;-60
2022/09/11 04:59:50;;;;;;;;;;;;;;;21.13;84.78;101660.75;7282867;19;153135;-60
2022/09/11 05:02:17;;;;;;;;;;;;;;;21.15;84.83;101675.38;7284895;19;152097;-59
2022/09/11 05:04:44;;;;;;;;;;;;;;;21.11;84.70;101679.88;7279858;19;153189;-59
2022/09/11 05:07:13;;;;;;;;;;;;;;;21.14;84.46;101674.53;7283096;19;153254;-60
2022/09/11 05:09:40;;;;;;;;;;;;;;;21.13;84.48;101684.06;7283294;19;152174;-60
2022/09/11 05:12:07;;;;;;;;;;;;;;;21.15;84.66;101676.22;7288599;19;153391;-60
2022/09/11 05:14:34;;;;;;;;;;;;;;;21.14;84.76;101677.34;7283109;19;152166;-59
2022/09/11 05:17:01;;;;;;;;;;;;;;;21.14;84.85;101696.16;7284247;19;153335;-59
2022/09/11 05:19:28;;;;;;;;;;;;;;;21.13;84.81;101692.50;7282862;19;153574;-60
2022/09/11 05:21:55;;;;;;;;;;;;;;;21.15;84.55;101692.22;7282805;19;151983;-59
2022/09/11 05:24:22;;;;;;;;;;;;;;;21.14;84.54;101693.34;7282919;19;152743;-58
2022/09/11 05:26:49;;;;;;;;;;;;;;;21.12;84.76;101692.78;7281898;19;153372;-59
2022/09/11 05:29:16;;;;;;;;;;;;;;;21.14;84.74;101687.72;7280742;19;152097;-59
2022/09/11 05:31:43;;;;;;;;;;;;;;;21.11;84.94;101693.91;7280400;19;153368;-60
2022/09/11 05:34:10;;;;;;;;;;;;;;;21.13;84.61;101694.47;7288353;19;154137;-59
2022/09/11 05:36:37;;;;;;;;;;;;;;;21.14;84.71;101698.97;7277474;19;153653;-64
2022/09/11 05:39:04;;;;;;;;;;;;;;;21.14;84.80;101698.97;7281036;19;153499;-59
2022/09/11 05:41:31;;;;;;;;;;;;;;;21.13;84.85;101706.56;7283479;19;154021;-59
2022/09/11 05:43:58;;;;;;;;;;;;;;;21.09;84.68;101701.78;7277384;19;153409;-60
2022/09/11 05:46:25;;;;;;;;;;;;;;;21.11;84.56;101702.34;7281490;19;153784;-60
2022/09/11 05:48:52;;;;;;;;;;;;;;;21.11;84.79;101703.19;7278540;19;152609;-59
2022/09/11 05:51:20;;;;;;;;;;;;;;;21.08;84.69;101700.94;7283342;19;152951;-60
2022/09/11 05:53:51;;;;;;;;;;;;;;;21.09;85.20;101698.97;7279821;19;154235;-59
2022/09/11 05:56:20;;;;;;;;;;;;;;;21.09;85.18;101705.44;7289712;19;152915;-59
2022/09/11 05:58:47;;;;;;;;;;;;;;;21.07;85.21;101704.06;7274803;19;153647;-59
2022/09/11 06:01:16;;;;;;;;;;;;;;;21.06;85.13;101710.81;7282481;19;152217;-59
2022/09/11 06:03:43;;;;;;;;;;;;;;;21.11;85.12;101700.38;7276115;19;153325;-59
2022/09/11 06:06:11;;;;;;;;;;;;;;;21.09;85.20;101707.41;7280400;19;153200;-60
2022/09/11 06:08:40;;;;;;;;;;;;;;;21.09;84.98;101701.78;7280400;19;154053;-60
2022/09/11 06:11:07;;;;;;;;;;;;;;;21.11;85.10;101706.00;7283832;19;152636;-60
2022/09/11 06:13:35;;;;;;;;;;;;;;;21.11;84.98;101705.16;7277000;19;153796;-60
2022/09/11 06:16:03;;;;;;;;;;;;;;;21.07;85.47;101710.53;7289617;19;152432;-59
2022/09/11 06:18:31;;;;;;;;;;;;;;;21.08;85.49;101712.19;7279985;19;154086;-59
2022/09/11 06:21:01;;;;;;;;;;;;;;;21.09;85.20;101715.84;7279981;19;152335;-60
2022/09/11 06:23:28;;;;;;;;;;;;;;;21.08;85.34;101716.97;7278403;19;152623;-60
2022/09/11 06:25:58;;;;;;;;;;;;;;;21.06;85.10;101720.09;7276980;19;154056;-59
2022/09/11 06:28:25;;;;;;;;;;;;;;;21.08;85.68;101720.63;7277861;19;152818;-59
2022/09/11 06:30:52;;;;;;;;;;;;;;;21.09;85.40;101718.66;7281379;19;152660;-60
2022/09/11 06:33:19;;;;;;;;;;;;;;;21.06;85.73;101708.84;7277942;19;154088;-60
2022/09/11 06:35:49;;;;;;;;;;;;;;;21.06;85.54;101714.47;7279165;19;152063;-60
2022/09/11 06:38:16;;;;;;;;;;;;;;;21.05;85.67;101715.59;7282481;19;153518;-60
2022/09/11 06:40:43;;;;;;;;;;;;;;;21.07;85.72;101709.69;7281392;19;152396;-60
2022/09/11 06:43:11;;;;;;;;;;;;;;;21.09;85.89;101718.66;7279393;19;152963;-59
2022/09/11 06:45:38;;;;;;;;;;;;;;;21.09;86.02;101710.22;7283856;19;153938;-60
2022/09/11 06:48:05;;;;;;;;;;;;;;;21.09;86.17;101711.06;7288262;19;152370;-59
2022/09/11 06:50:39;;;;;;;;;;;;;;;21.08;86.12;101705.72;7285611;19;153269;-59
2022/09/11 06:53:07;;;;;;;;;;;;;;;21.09;86.22;101713.88;7284670;19;153758;-59
2022/09/11 06:55:34;;;;;;;;;;;;;;;21.13;86.22;101708.53;7286983;19;152150;-60
2022/09/11 06:58:01;;;;;;;;;;;;;;;21.14;86.31;101710.22;7283599;19;152081;-60
2022/09/11 07:00:28;;;;;;;;;;;;;;;21.14;85.97;101710.22;7293442;19;153301;-60
2022/09/11 07:02:55;;;;;;;;;;;;;;;21.13;85.94;101705.72;7286186;19;152131;-60
2022/09/11 07:05:23;;;;;;;;;;;;;;;21.13;85.65;101700.94;7282243;19;154960;-60
2022/09/11 07:07:51;;;;;;;;;;;;;;;21.10;86.03;101704.31;7286964;19;153866;-60
2022/09/11 07:10:18;;;;;;;;;;;;;;;21.12;85.21;101695.59;7287797;19;151966;-60
2022/09/11 07:12:45;;;;;;;;;;;;;;;21.09;85.49;101697.00;7283542;19;153948;-59
2022/09/11 07:15:12;;;;;;;;;;;;;;;21.10;85.27;101700.66;7285798;19;152236;-60
2022/09/11 07:17:39;;;;;;;;;;;;;;;21.13;85.42;101702.91;7285044;19;153540;-59
2022/09/11 07:20:08;;;;;;;;;;;;;;;21.12;85.51;101704.03;7285259;19;153261;-60
2022/09/11 07:22:35;;;;;;;;;;;;;;;21.11;85.48;101691.94;7293468;19;154191;-60
2022/09/11 07:25:02;;;;;;;;;;;;;;;21.11;85.79;101699.53;7282882;19;153349;-60
2022/09/11 07:27:33;;;;;;;;;;;;;;;21.12;85.37;101695.59;7283626;19;152141;-60
2022/09/11 07:30:00;;;;;;;;;;;;;;;21.13;85.46;101702.91;7286414;19;153495;-59
2022/09/11 07:32:28;;;;;;;;;;;;;;;21.10;85.84;101697.84;7285448;19;152526;-59
2022/09/11 07:34:55;;;;;;;;;;;;;;;21.11;85.35;101696.72;7286148;19;152046;-60
2022/09/11 07:37:22;;;;;;;;;;;;;;;21.11;85.11;101693.91;7283233;19;153073;-60
2022/09/11 07:39:49;;;;;;;;;;;;;;;21.12;85.21;101689.97;7277305;19;154494;-60
2022/09/11 07:42:16;;;;;;;;;;;;;;;21.11;85.36;101699.53;7283722;19;152163;-59
2022/09/11 07:44:44;;;;;;;;;;;;;;;21.08;85.38;101706.56;7291473;19;152332;-59
2022/09/11 07:47:10;;;;;;;;;;;;;;;21.12;85.73;101706.84;7286711;19;152242;-60
2022/09/11 07:49:37;;;;;;;;;;;;;;;21.10;85.31;101715.56;7285876;19;153856;-59
2022/09/11 07:52:05;;;;;;;;;;;;;;;21.12;85.33;101712.47;7284322;19;152963;-60
2022/09/11 07:54:32;;;;;;;;;;;;;;;21.09;85.91;101711.06;7283430;19;155674;-59
2022/09/11 07:56:59;;;;;;;;;;;;;;;21.10;86.00;101711.91;7284504;19;152771;-59
2022/09/11 07:59:26;;;;;;;;;;;;;;;21.08;86.35;101715.00;7282182;19;152256;-59
2022/09/11 08:01:54;;;;;;;;;;;;;;;21.12;86.27;101718.91;7287205;19;152316;-59
2022/09/11 08:04:21;;;;;;;;;;;;;;;21.11;85.84;101711.63;7280031;19;153369;-59
2022/09/11 08:06:48;;;;;;;;;;;;;;;21.13;85.73;101709.38;7290115;19;153857;-59
2022/09/11 08:09:15;;;;;;;;;;;;;;;21.11;85.68;101711.63;7284870;19;152820;-59
2022/09/11 08:11:44;;;;;;;;;;;;;;;21.12;85.99;101702.03;7284416;19;153196;-59
2022/09/11 08:14:12;;;;;;;;;;;;;;;21.13;85.90;101703.75;7280086;19;152415;-60
2022/09/11 08:16:40;;;;;;;;;;;;;;;21.11;86.13;101703.19;7284408;19;153171;-60
2022/09/11 08:19:08;;;;;;;;;;;;;;;21.12;85.91;101702.03;7280552;19;153928;-60
2022/09/11 08:21:35;;;;;;;;;;;;;;;21.09;85.98;101708.25;7284892;19;153609;-60
2022/09/11 08:24:02;;;;;;;;;;;;;;;21.11;85.89;101711.63;7285690;19;153145;-60
2022/09/11 08:26:30;;;;;;;;;;;;;;;21.14;85.89;101713.88;7289082;19;153949;-60
2022/09/11 08:28:57;;;;;;;;;;;;;;;21.13;85.64;101702.91;7281503;19;154134;-60
2022/09/11 08:31:25;;;;;;;;;;;;;;;21.11;85.99;101700.38;7282246;19;153765;-60
2022/09/11 08:33:53;;;;;;;;;;;;;;;21.14;85.92;101704.59;7281466;19;152407;-59
2022/09/11 08:36:20;;;;;;;;;;;;;;;21.10;86.18;101712.75;7283649;19;153396;-60
2022/09/11 08:38:48;;;;;;;;;;;;;;;21.11;86.23;101699.53;7283210;19;152533;-59
2022/09/11 08:41:18;;;;;;;;;;;;;;;21.13;85.70;101700.94;7282773;19;151989;-59
2022/09/11 08:43:49;;;;;;;;;;;;;;;21.15;85.98;101695.03;7281559;19;153382;-59
2022/09/11 08:46:17;;;;;;;;;;;;;;;21.12;85.84;101693.59;7282158;19;153296;-60
2022/09/11 08:48:53;;;;;;;;;;;;;;;21.15;86.38;101697.84;7291144;19;152188;-59
2022/09/11 08:51:20;;;;;;;;;;;;;;;21.13;85.99;101698.13;7283844;19;153663;-60
2022/09/11 08:53:47;;;;;;;;;;;;;;;21.15;86.00;101695.88;7283988;19;152573;-60
2022/09/11 08:56:17;;;;;;;;;;;;;;;21.15;86.17;101695.03;7284670;19;152414;-60
2022/09/11 08:58:47;;;;;;;;;;;;;;;21.12;86.50;101696.41;7279543;19;152608;-60
2022/09/11 09:01:17;;;;;;;;;;;;;;;21.12;86.42;101685.16;7285749;19;152323;-60
2022/09/11 09:03:52;;;;;;;;;;;;;;;21.15;86.28;101684.63;7280600;19;153064;-59
2022/09/11 09:06:25;;;;;;;;;;;;;;;21.15;86.06;101692.22;7280491;19;153768;-59
2022/09/11 09:08:54;;;;;;;;;;;;;;;21.15;86.47;101676.22;7282504;19;151913;-59
2022/09/11 09:11:30;;;;;;;;;;;;;;;21.19;86.50;101684.88;7289703;19;152002;-60
2022/09/11 09:14:06;;;;;;;;;;;;;;;21.18;86.81;101686.84;7280687;19;152409;-60
2022/09/11 09:16:35;;;;;;;;;;;;;;;21.18;86.63;101678.41;7283996;19;153401;-60
2022/09/11 09:19:08;;;;;;;;;;;;;;;21.20;86.89;101678.13;7280972;19;153241;-60
2022/09/11 09:21:41;;;;;;;;;;;;;;;21.21;86.69;101683.44;7283582;19;153634;-59
2022/09/11 09:24:18;;;;;;;;;;;;;;;21.21;86.68;101672.19;7281695;19;152988;-60
2022/09/11 09:26:49;;;;;;;;;;;;;;;21.22;86.97;101676.69;7279675;19;154158;-60
2022/09/11 09:29:19;;;;;;;;;;;;;;;21.23;86.72;101675.56;7279369;19;153647;-59
2022/09/11 09:31:47;;;;;;;;;;;;;;;21.25;87.15;101675.28;7282854;19;153061;-59
2022/09/11 09:34:18;;;;;;;;;;;;;;;21.26;87.28;101676.94;7288398;19;152964;-60
2022/09/11 09:36:45;;;;;;;;;;;;;;;21.27;87.08;101675.81;7284004;19;152392;-61
2022/09/11 09:39:14;;;;;;;;;;;;;;;21.28;87.58;101683.94;7280648;19;155369;-60
2022/09/11 09:41:42;;;;;;;;;;;;;;;21.29;87.55;101677.19;7283868;19;152095;-60
2022/09/11 09:44:09;;;;;;;;;;;;;;;21.32;87.66;101689.81;7279039;19;152587;-60
2022/09/11 09:46:40;;;;;;;;;;;;;;;21.33;87.72;101688.69;7280228;19;154383;-59
2022/09/11 09:49:09;;;;;;;;;;;;;;;21.34;87.92;101693.19;7280429;19;152439;-59
2022/09/11 09:51:38;;;;;;;;;;;;;;;21.37;87.16;101700.16;7283432;19;153660;-59
2022/09/11 09:54:08;;;;;;;;;;;;;;;21.40;87.26;101691.13;7278771;19;153348;-59
2022/09/11 09:56:36;;;;;;;;;;;;;;;21.41;87.69;101687.19;7288304;19;153988;-60
2022/09/11 09:59:06;;;;;;;;;;;;;;;21.42;87.69;101686.06;7276012;19;153232;-60
2022/09/11 10:01:36;;;;;;;;;;;;;;;21.42;87.62;101686.06;7280843;19;152059;-60
2022/09/11 10:04:07;;;;;;;;;;;;;;;21.42;87.33;101684.09;7278202;19;153535;-60
2022/09/11 10:06:34;;;;;;;;;;;;;;;21.43;86.68;101682.97;7279861;19;152439;-60
2022/09/11 10:09:01;;;;;;;;;;;;;;;21.42;86.79;101683.25;7280393;19;152659;-59
2022/09/11 10:11:29;;;;;;;;;;;;;;;21.41;86.25;101679.59;7282234;19;152745;-59
2022/09/11 10:13:56;;;;;;;;;;;;;;;21.41;86.57;101684.38;7277908;19;153605;-60
2022/09/11 10:16:24;;;;;;;;;;;;;;;21.41;85.45;101684.38;7283201;19;152030;-60
2022/09/11 10:18:53;;;;;;;;;;;;;;;21.43;85.26;101690.56;7292211;19;155472;-62
2022/09/11 10:21:21;;;;;;;;;;;;;;;21.40;84.66;101682.69;7286490;19;151965;-60
2022/09/11 10:23:50;;;;;;;;;;;;;;;21.41;84.23;101690.84;7286766;19;153554;-60
2022/09/11 10:26:21;;;;;;;;;;;;;;;21.40;83.84;101685.50;7286863;19;153264;-61
2022/09/11 10:28:48;;;;;;;;;;;;;;;21.40;83.62;101689.16;7284347;19;152663;-61
2022/09/11 10:31:15;;;;;;;;;;;;;;;21.47;82.92;101683.19;7288437;19;152939;-60
2022/09/11 10:33:45;;;;;;;;;;;;;;;21.48;80.98;101677.28;7285567;19;152642;-60
2022/09/11 10:36:20;;;;;;;;;;;;;;;21.49;78.48;101675.28;7287272;19;153733;-59
2022/09/11 10:38:47;;;;;;;;;;;;;;;21.49;78.00;101675.28;7293705;19;152300;-60
2022/09/11 10:41:18;;;;;;;;;;;;;;;21.45;75.32;101668.59;7287320;19;151785;-60
2022/09/11 10:43:46;;;;;;;;;;;;;;;21.35;75.72;101674.34;7284171;19;151941;-60
2022/09/11 10:46:16;;;;;;;;;;;;;;;21.35;75.18;101668.72;7284850;19;153347;-60
2022/09/11 10:48:46;;;;;;;;;;;;;;;21.34;74.35;101670.69;7283198;19;153510;-60
2022/09/11 10:51:13;;;;;;;;;;;;;;;21.30;74.88;101670.41;7286090;19;153019;-60
2022/09/11 10:53:49;;;;;;;;;;;;;;;21.28;74.17;101674.69;7281541;19;153759;-60
2022/09/11 10:56:16;;;;;;;;;;;;;;;21.27;74.58;101668.22;7284366;19;152392;-60
2022/09/11 10:58:47;;;;;;;;;;;;;;;21.29;74.22;101673.53;7281065;19;154389;-60
2022/09/11 11:01:19;;;;;;;;;;;;;;;21.26;73.24;101671.31;7290285;19;152734;-60
2022/09/11 11:03:47;;;;;;;;;;;;;;;21.20;73.63;101667.72;7279780;19;153375;-59
2022/09/11 11:06:24;;;;;;;;;;;;;;;21.19;73.26;101657.63;7282085;19;153959;-60
2022/09/11 11:08:56;;;;;;;;;;;;;;;21.20;73.52;101659.31;7282742;19;152426;-60
2022/09/11 11:11:26;;;;;;;;;;;;;;;21.18;73.63;101660.72;7283233;19;152373;-60
2022/09/11 11:13:56;;;;;;;;;;;;;;;21.21;73.06;101658.13;7237912;19;153887;-60
2022/09/11 11:16:26;;;;;;;;;;;;;;;21.15;72.97;101656.53;7266553;19;152893;-59
2022/09/11 11:18:53;;;;;;;;;;;;;;;21.19;72.54;101656.78;7276812;19;152480;-59
2022/09/11 11:21:23;;;;;;;;;;;;;;;21.18;73.45;101658.75;7280561;19;153022;-60
2022/09/11 11:24:01;;;;;;;;;;;;;;;21.19;74.09;101656.78;7288939;19;152231;-60
2022/09/11 11:26:31;;;;;;;;;;;;;;;21.16;74.85;101660.19;7282160;19;153647;-61
2022/09/11 11:29:01;;;;;;;;;;;;;;;21.18;74.53;101653.13;7278377;19;153158;-59
2022/09/11 11:31:31;;;;;;;;;;;;;;;21.17;75.02;101650.59;7284043;19;153697;-60
2022/09/11 11:34:01;;;;;;;;;;;;;;;21.16;74.61;101646.13;7275265;19;153189;-59
2022/09/11 11:36:36;;;;;;;;;;;;;;;21.17;74.70;101650.59;7272927;19;152622;-59
2022/09/11 11:39:06;;;;;;;;;;;;;;;21.17;74.89;101645.81;7278247;19;156422;-60
2022/09/11 11:41:36;;;;;;;;;;;;;;;21.19;75.02;101642.72;7279065;19;153293;-59
2022/09/11 11:44:12;;;;;;;;;;;;;;;21.18;75.24;101639.06;7277539;19;152563;-59
2022/09/11 11:46:44;;;;;;;;;;;;;;;21.19;74.29;101637.09;7280946;19;152566;-59
2022/09/11 11:49:18;;;;;;;;;;;;;;;21.24;74.48;101631.44;7266314;19;152824;-60
2022/09/11 11:51:56;;;;;;;;;;;;;;;21.24;74.14;101625.81;7283432;19;152749;-60
2022/09/11 11:54:26;;;;;;;;;;;;;;;21.23;74.16;101629.75;7279910;19;152241;-59
2022/09/11 11:56:53;;;;;;;;;;;;;;;21.22;74.56;101628.91;7283390;19;153318;-60
2022/09/11 11:59:20;;;;;;;;;;;;;;;21.28;73.74;101624.06;7278351;19;153042;-60
2022/09/11 12:01:53;;;;;;;;;;;;;;;21.30;73.51;101622.63;7283166;19;153676;-59
2022/09/11 12:04:21;;;;;;;;;;;;;;;21.34;73.58;101620.09;7278819;19;152270;-59
2022/09/11 12:06:49;;;;;;;;;;;;;;;21.36;72.56;101619.78;7282047;19;153700;-62
2022/09/11 12:09:16;;;;;;;;;;;;;;;21.37;72.62;101625.09;7284964;19;151823;-60
2022/09/11 12:11:49;;;;;;;;;;;;;;;21.39;72.36;101619.19;7278427;19;152234;-59
2022/09/11 12:14:26;;;;;;;;;;;;;;;21.35;72.36;101621.75;7280345;19;154114;-60
2022/09/11 12:16:53;;;;;;;;;;;;;;;21.34;71.85;101616.44;7276654;19;153208;-60
2022/09/11 12:19:21;;;;;;;;;;;;;;;21.39;71.66;101620.03;7236451;19;153772;-59
2022/09/11 12:21:51;;;;;;;;;;;;;;;21.44;70.80;101621.97;7277466;19;152462;-60
2022/09/11 12:24:20;;;;;;;;;;;;;;;21.51;69.99;101622.41;7278431;19;151893;-60
2022/09/11 12:26:47;;;;;;;;;;;;;;;21.51;69.73;101612.03;7276886;19;153192;-59
2022/09/11 12:31:50;;;;;;;;;;;;;;;21.48;69.45;101618.25;7285847;19;152860;-59
2022/09/11 12:34:17;;;;;;;;;;;;;;;21.49;69.73;101613.44;7276561;19;153660;-59
2022/09/11 12:36:45;;;;;;;;;;;;;;;21.48;69.95;101609.81;7277140;19;151745;-59
2022/09/11 12:39:13;;;;;;;;;;;;;;;21.48;69.58;101601.38;7278764;19;153366;-60